sensor_id;sensor_type;location;lat;lon;timestamp;pressure;altitude;pressure_sealevel;temperature;humidity
16595;BME280;8410;52.532;13.336;2023-04-28T00:02:23;101522.41;;;10.00;56.85
16595;BME280;8410;52.532;13.336;2023-04-28T00:04:51;101514.75;;;10.03;56.04
16595;BME280;8410;52.532;13.336;2023-04-28T00:07:21;101519.41;;;10.16;56.26
16595;BME280;8410;52.532;13.336;2023-04-28T00:09:48;101517.63;;;10.13;56.05
16595;BME280;8410;52.532;13.336;2023-04-28T00:12:16;101518.03;;;9.97;56.38
16595;BME280;8410;52.532;13.336;2023-04-28T00:14:43;101517.75;;;9.86;57.23
16595;BME280;8410;52.532;13.336;2023-04-28T00:17:11;101511.34;;;10.04;56.61
16595;BME280;8410;52.532;13.336;2023-04-28T00:19:38;101524.06;;;9.98;56.43
16595;BME280;8410;52.532;13.336;2023-04-28T00:22:06;101523.06;;;9.94;57.58
16595;BME280;8410;52.532;13.336;2023-04-28T00:24:35;101517.47;;;9.77;57.13
16595;BME280;8410;52.532;13.336;2023-04-28T00:27:02;101508.84;;;9.75;56.83
16595;BME280;8410;52.532;13.336;2023-04-28T00:29:30;101512.47;;;9.82;56.27
16595;BME280;8410;52.532;13.336;2023-04-28T00:31:57;101514.25;;;9.84;57.06
16595;BME280;8410;52.532;13.336;2023-04-28T00:34:25;101520.59;;;9.67;57.94
16595;BME280;8410;52.532;13.336;2023-04-28T00:36:52;101512.81;;;9.64;57.79
16595;BME280;8410;52.532;13.336;2023-04-28T00:39:19;101510.69;;;9.79;57.15
16595;BME280;8410;52.532;13.336;2023-04-28T00:41:49;101512.94;;;9.68;57.80
16595;BME280;8410;52.532;13.336;2023-04-28T00:44:17;101505.31;;;9.71;56.95
16595;BME280;8410;52.532;13.336;2023-04-28T00:46:44;101500.97;;;9.69;57.25
16595;BME280;8410;52.532;13.336;2023-04-28T00:49:14;101498.34;;;9.67;57.79
16595;BME280;8410;52.532;13.336;2023-04-28T00:51:41;101502.34;;;9.58;58.50
16595;BME280;8410;52.532;13.336;2023-04-28T00:54:12;101495.09;;;9.73;58.58
16595;BME280;8410;52.532;13.336;2023-04-28T00:56:40;101490.03;;;9.76;57.39
16595;BME280;8410;52.532;13.336;2023-04-28T00:59:09;101493.31;;;9.70;57.96
16595;BME280;8410;52.532;13.336;2023-04-28T01:01:37;101490.63;;;9.67;58.10
16595;BME280;8410;52.532;13.336;2023-04-28T01:04:04;101494.69;;;9.59;58.34
16595;BME280;8410;52.532;13.336;2023-04-28T01:06:33;101485.97;;;9.54;58.06
16595;BME280;8410;52.532;13.336;2023-04-28T01:09:00;101489.50;;;9.58;58.75
16595;BME280;8410;52.532;13.336;2023-04-28T01:11:27;101490.63;;;9.67;58.68
16595;BME280;8410;52.532;13.336;2023-04-28T01:13:55;101481.97;;;9.64;57.75
16595;BME280;8410;52.532;13.336;2023-04-28T01:16:26;101481.03;;;9.62;57.20
16595;BME280;8410;52.532;13.336;2023-04-28T01:18:53;101481.31;;;9.71;57.70
16595;BME280;8410;52.532;13.336;2023-04-28T01:21:25;101475.38;;;9.74;56.82
16595;BME280;8410;52.532;13.336;2023-04-28T01:23:55;101474.31;;;9.65;56.85
16595;BME280;8410;52.532;13.336;2023-04-28T01:26:23;101473.59;;;9.71;57.04
16595;BME280;8410;52.532;13.336;2023-04-28T01:28:50;101472.16;;;9.50;57.49
16595;BME280;8410;52.532;13.336;2023-04-28T01:31:18;101469.34;;;9.41;58.29
16595;BME280;8410;52.532;13.336;2023-04-28T01:33:46;101467.16;;;9.55;58.57
16595;BME280;8410;52.532;13.336;2023-04-28T01:36:13;101463.09;;;9.63;57.37
16595;BME280;8410;52.532;13.336;2023-04-28T01:38:41;101457.34;;;9.42;57.05
16595;BME280;8410;52.532;13.336;2023-04-28T01:41:10;101462.16;;;9.60;57.12
16595;BME280;8410;52.532;13.336;2023-04-28T01:43:37;101457.13;;;9.64;57.54
16595;BME280;8410;52.532;13.336;2023-04-28T01:46:04;101456.41;;;9.38;58.24
16595;BME280;8410;52.532;13.336;2023-04-28T01:48:32;101461.97;;;9.54;58.28
16595;BME280;8410;52.532;13.336;2023-04-28T01:51:00;101456.75;;;9.50;59.55
16595;BME280;8410;52.532;13.336;2023-04-28T01:53:27;101452.69;;;9.59;57.92
16595;BME280;8410;52.532;13.336;2023-04-28T01:55:55;101454.31;;;9.57;58.75
16595;BME280;8410;52.532;13.336;2023-04-28T01:58:25;101449.59;;;9.40;58.81
16595;BME280;8410;52.532;13.336;2023-04-28T02:00:52;101453.00;;;9.39;58.88
16595;BME280;8410;52.532;13.336;2023-04-28T02:03:20;101445.53;;;9.48;58.79
16595;BME280;8410;52.532;13.336;2023-04-28T02:05:47;101452.47;;;9.51;58.92
16595;BME280;8410;52.532;13.336;2023-04-28T02:08:15;101445.06;;;9.62;58.27
16595;BME280;8410;52.532;13.336;2023-04-28T02:10:42;101451.94;;;9.63;58.95
16595;BME280;8410;52.532;13.336;2023-04-28T02:13:10;101448.59;;;9.65;58.28
16595;BME280;8410;52.532;13.336;2023-04-28T02:15:40;101449.53;;;9.69;58.68
16595;BME280;8410;52.532;13.336;2023-04-28T02:18:07;101446.63;;;9.57;58.65
16595;BME280;8410;52.532;13.336;2023-04-28T02:20:35;101451.75;;;9.57;57.99
16595;BME280;8410;52.532;13.336;2023-04-28T02:23:02;101443.47;;;9.65;58.06
16595;BME280;8410;52.532;13.336;2023-04-28T02:25:30;101445.53;;;9.79;58.15
16595;BME280;8410;52.532;13.336;2023-04-28T02:27:57;101442.06;;;9.78;58.32
16595;BME280;8410;52.532;13.336;2023-04-28T02:30:25;101440.91;;;9.99;57.23
16595;BME280;8410;52.532;13.336;2023-04-28T02:32:54;101432.38;;;10.00;57.03
16595;BME280;8410;52.532;13.336;2023-04-28T02:35:21;101436.34;;;9.88;57.12
16595;BME280;8410;52.532;13.336;2023-04-28T02:37:48;101438.25;;;9.64;58.32
16595;BME280;8410;52.532;13.336;2023-04-28T02:40:16;101428.53;;;9.52;59.09
16595;BME280;8410;52.532;13.336;2023-04-28T02:42:44;101438.56;;;9.75;58.33
16595;BME280;8410;52.532;13.336;2023-04-28T02:45:11;101441.59;;;9.60;58.58
16595;BME280;8410;52.532;13.336;2023-04-28T02:47:39;101428.84;;;9.64;58.95
16595;BME280;8410;52.532;13.336;2023-04-28T02:50:09;101428.59;;;9.55;58.84
16595;BME280;8410;52.532;13.336;2023-04-28T02:52:36;101429.09;;;9.74;59.21
16595;BME280;8410;52.532;13.336;2023-04-28T02:55:05;101424.91;;;9.77;59.12
16595;BME280;8410;52.532;13.336;2023-04-28T02:57:32;101427.69;;;9.85;58.55
16595;BME280;8410;52.532;13.336;2023-04-28T03:00:00;101428.69;;;9.91;58.75
16595;BME280;8410;52.532;13.336;2023-04-28T03:02:27;101436.59;;;9.66;59.31
16595;BME280;8410;52.532;13.336;2023-04-28T03:04:55;101426.19;;;9.93;59.75
16595;BME280;8410;52.532;13.336;2023-04-28T03:07:23;101424.66;;;9.68;59.73
16595;BME280;8410;52.532;13.336;2023-04-28T03:09:51;101426.06;;;9.88;59.02
16595;BME280;8410;52.532;13.336;2023-04-28T03:12:18;101423.84;;;9.69;59.95
16595;BME280;8410;52.532;13.336;2023-04-28T03:14:46;101422.97;;;9.68;59.59
16595;BME280;8410;52.532;13.336;2023-04-28T03:17:13;101418.34;;;9.88;59.13
16595;BME280;8410;52.532;13.336;2023-04-28T03:19:41;101417.44;;;9.86;60.24
16595;BME280;8410;52.532;13.336;2023-04-28T03:22:08;101415.31;;;10.05;58.93
16595;BME280;8410;52.532;13.336;2023-04-28T03:24:37;101410.41;;;9.79;59.02
16595;BME280;8410;52.532;13.336;2023-04-28T03:27:04;101407.38;;;9.96;59.09
16595;BME280;8410;52.532;13.336;2023-04-28T03:29:32;101406.91;;;9.77;60.33
16595;BME280;8410;52.532;13.336;2023-04-28T03:31:59;101411.75;;;9.66;60.64
16595;BME280;8410;52.532;13.336;2023-04-28T03:34:27;101409.56;;;9.80;61.46
16595;BME280;8410;52.532;13.336;2023-04-28T03:36:54;101402.38;;;10.02;59.21
16595;BME280;8410;52.532;13.336;2023-04-28T03:39:22;101402.84;;;9.85;60.23
16595;BME280;8410;52.532;13.336;2023-04-28T03:41:51;101403.63;;;10.16;59.32
16595;BME280;8410;52.532;13.336;2023-04-28T03:44:18;101401.13;;;10.19;58.76
16595;BME280;8410;52.532;13.336;2023-04-28T03:46:46;101399.28;;;10.15;59.16
16595;BME280;8410;52.532;13.336;2023-04-28T03:49:14;101400.63;;;10.32;58.74
16595;BME280;8410;52.532;13.336;2023-04-28T03:51:41;101392.34;;;10.46;57.75
16595;BME280;8410;52.532;13.336;2023-04-28T03:54:08;101392.13;;;10.36;57.67
16595;BME280;8410;52.532;13.336;2023-04-28T03:56:36;101389.34;;;10.27;57.85
16595;BME280;8410;52.532;13.336;2023-04-28T03:59:05;101393.34;;;10.51;57.85
16595;BME280;8410;52.532;13.336;2023-04-28T04:01:32;101393.72;;;10.31;57.86
16595;BME280;8410;52.532;13.336;2023-04-28T04:04:00;101382.00;;;10.44;57.92
16595;BME280;8410;52.532;13.336;2023-04-28T04:06:28;101383.41;;;10.31;57.65
16595;BME280;8410;52.532;13.336;2023-04-28T04:08:56;101375.56;;;10.63;57.77
16595;BME280;8410;52.532;13.336;2023-04-28T04:11:23;101384.56;;;10.80;57.45
16595;BME280;8410;52.532;13.336;2023-04-28T04:13:51;101382.88;;;10.45;57.24
16595;BME280;8410;52.532;13.336;2023-04-28T04:16:20;101373.88;;;10.64;57.03
16595;BME280;8410;52.532;13.336;2023-04-28T04:18:48;101376.75;;;10.40;57.14
16595;BME280;8410;52.532;13.336;2023-04-28T04:21:15;101374.78;;;11.05;56.32
16595;BME280;8410;52.532;13.336;2023-04-28T04:23:42;101375.84;;;11.15;55.49
16595;BME280;8410;52.532;13.336;2023-04-28T04:26:10;101373.59;;;11.32;55.83
16595;BME280;8410;52.532;13.336;2023-04-28T04:28:37;101367.97;;;11.53;54.57
16595;BME280;8410;52.532;13.336;2023-04-28T04:31:05;101366.88;;;11.40;55.35
16595;BME280;8410;52.532;13.336;2023-04-28T04:33:34;101365.84;;;11.32;54.53
16595;BME280;8410;52.532;13.336;2023-04-28T04:36:03;101361.47;;;11.27;55.61
16595;BME280;8410;52.532;13.336;2023-04-28T04:38:31;101358.53;;;11.53;56.13
16595;BME280;8410;52.532;13.336;2023-04-28T04:40:59;101360.44;;;11.19;56.16
16595;BME280;8410;52.532;13.336;2023-04-28T04:43:26;101363.81;;;11.17;55.14
16595;BME280;8410;52.532;13.336;2023-04-28T04:45:54;101356.72;;;11.49;54.35
16595;BME280;8410;52.532;13.336;2023-04-28T04:48:21;101353.41;;;11.56;55.01
16595;BME280;8410;52.532;13.336;2023-04-28T04:50:50;101358.47;;;11.06;56.26
16595;BME280;8410;52.532;13.336;2023-04-28T04:53:17;101360.75;;;10.92;56.75
16595;BME280;8410;52.532;13.336;2023-04-28T04:55:45;101352.97;;;11.32;56.94
16595;BME280;8410;52.532;13.336;2023-04-28T04:58:12;101354.03;;;10.99;57.40
16595;BME280;8410;52.532;13.336;2023-04-28T05:00:40;101349.69;;;11.87;54.47
16595;BME280;8410;52.532;13.336;2023-04-28T05:03:07;101342.72;;;11.83;53.88
16595;BME280;8410;52.532;13.336;2023-04-28T05:05:35;101344.81;;;11.57;54.09
16595;BME280;8410;52.532;13.336;2023-04-28T05:08:04;101343.94;;;12.05;52.86
16595;BME280;8410;52.532;13.336;2023-04-28T05:10:31;101341.78;;;12.31;52.14
16595;BME280;8410;52.532;13.336;2023-04-28T05:12:59;101334.22;;;12.45;52.99
16595;BME280;8410;52.532;13.336;2023-04-28T05:15:26;101333.16;;;12.93;51.01
16595;BME280;8410;52.532;13.336;2023-04-28T05:17:54;101338.97;;;12.14;53.40
16595;BME280;8410;52.532;13.336;2023-04-28T05:20:25;101331.72;;;12.50;52.55
16595;BME280;8410;52.532;13.336;2023-04-28T05:22:52;101333.19;;;11.81;52.87
16595;BME280;8410;52.532;13.336;2023-04-28T05:25:21;101337.88;;;11.53;53.17
16595;BME280;8410;52.532;13.336;2023-04-28T05:27:48;101332.38;;;11.82;53.38
16595;BME280;8410;52.532;13.336;2023-04-28T05:30:16;101325.16;;;12.12;53.63
16595;BME280;8410;52.532;13.336;2023-04-28T05:32:43;101317.44;;;13.51;49.93
16595;BME280;8410;52.532;13.336;2023-04-28T05:35:11;101309.78;;;14.95;47.97
16595;BME280;8410;52.532;13.336;2023-04-28T05:37:38;101299.94;;;17.36;43.83
16595;BME280;8410;52.532;13.336;2023-04-28T05:40:09;101282.50;;;19.73;38.36
16595;BME280;8410;52.532;13.336;2023-04-28T05:42:38;101278.56;;;20.45;37.72
16595;BME280;8410;52.532;13.336;2023-04-28T05:45:07;101281.13;;;19.48;38.20
16595;BME280;8410;52.532;13.336;2023-04-28T05:47:34;101267.50;;;19.86;37.72
16595;BME280;8410;52.532;13.336;2023-04-28T05:50:02;101280.22;;;18.91;38.54
16595;BME280;8410;52.532;13.336;2023-04-28T05:52:29;101288.47;;;17.65;41.09
16595;BME280;8410;52.532;13.336;2023-04-28T05:54:57;101273.47;;;18.73;39.40
16595;BME280;8410;52.532;13.336;2023-04-28T05:57:24;101287.25;;;16.72;41.56
16595;BME280;8410;52.532;13.336;2023-04-28T05:59:53;101289.09;;;16.45;42.88
16595;BME280;8410;52.532;13.336;2023-04-28T06:02:21;101285.63;;;16.52;43.21
16595;BME280;8410;52.532;13.336;2023-04-28T06:04:50;101275.75;;;17.25;41.80
16595;BME280;8410;52.532;13.336;2023-04-28T06:07:18;101279.69;;;15.89;43.16
16595;BME280;8410;52.532;13.336;2023-04-28T06:09:46;101288.25;;;15.17;44.37
16595;BME280;8410;52.532;13.336;2023-04-28T06:12:14;101282.09;;;14.83;46.41
16595;BME280;8410;52.532;13.336;2023-04-28T06:14:41;101277.91;;;15.24;45.34
16595;BME280;8410;52.532;13.336;2023-04-28T06:17:10;101294.25;;;12.19;50.87
16595;BME280;8410;52.532;13.336;2023-04-28T06:19:37;101278.28;;;14.18;48.15
16595;BME280;8410;52.532;13.336;2023-04-28T06:22:05;101271.88;;;15.54;45.29
16595;BME280;8410;52.532;13.336;2023-04-28T06:24:32;101264.94;;;15.50;45.12
16595;BME280;8410;52.532;13.336;2023-04-28T06:26:59;101270.13;;;15.51;44.62
16595;BME280;8410;52.532;13.336;2023-04-28T06:29:27;101280.34;;;13.48;48.80
16595;BME280;8410;52.532;13.336;2023-04-28T06:31:55;101273.00;;;14.03;47.79
16595;BME280;8410;52.532;13.336;2023-04-28T06:34:25;101264.34;;;13.98;48.37
16595;BME280;8410;52.532;13.336;2023-04-28T06:36:54;101258.25;;;13.91;46.56
16595;BME280;8410;52.532;13.336;2023-04-28T06:39:21;101273.41;;;13.46;49.09
16595;BME280;8410;52.532;13.336;2023-04-28T06:41:49;101273.03;;;13.08;49.44
16595;BME280;8410;52.532;13.336;2023-04-28T06:44:16;101270.75;;;13.39;49.24
16595;BME280;8410;52.532;13.336;2023-04-28T06:46:44;101270.13;;;13.63;49.13
16595;BME280;8410;52.532;13.336;2023-04-28T06:49:12;101270.94;;;13.56;48.66
16595;BME280;8410;52.532;13.336;2023-04-28T06:51:41;101258.81;;;13.52;48.88
16595;BME280;8410;52.532;13.336;2023-04-28T06:54:08;101259.47;;;13.26;48.65
16595;BME280;8410;52.532;13.336;2023-04-28T06:56:36;101264.19;;;12.89;49.36
16595;BME280;8410;52.532;13.336;2023-04-28T06:59:04;101255.59;;;12.90;48.88
16595;BME280;8410;52.532;13.336;2023-04-28T07:01:31;101262.06;;;12.56;49.11
16595;BME280;8410;52.532;13.336;2023-04-28T07:03:59;101253.47;;;12.55;50.31
16595;BME280;8410;52.532;13.336;2023-04-28T07:06:26;101248.63;;;12.83;50.05
16595;BME280;8410;52.532;13.336;2023-04-28T07:08:56;101250.72;;;13.18;48.98
16595;BME280;8410;52.532;13.336;2023-04-28T07:11:23;101244.31;;;12.80;50.18
16595;BME280;8410;52.532;13.336;2023-04-28T07:13:51;101247.19;;;13.10;49.77
16595;BME280;8410;52.532;13.336;2023-04-28T07:16:18;101235.22;;;13.18;49.10
16595;BME280;8410;52.532;13.336;2023-04-28T07:18:46;101238.81;;;13.29;48.67
16595;BME280;8410;52.532;13.336;2023-04-28T07:21:14;101236.22;;;13.31;48.50
16595;BME280;8410;52.532;13.336;2023-04-28T07:23:41;101213.13;;;13.54;48.01
16595;BME280;8410;52.532;13.336;2023-04-28T07:26:10;101221.44;;;13.22;48.04
16595;BME280;8410;52.532;13.336;2023-04-28T07:28:43;101223.28;;;13.29;47.25
16595;BME280;8410;52.532;13.336;2023-04-28T07:31:11;101219.44;;;13.88;47.46
16595;BME280;8410;52.532;13.336;2023-04-28T07:33:38;101199.81;;;14.33;46.51
16595;BME280;8410;52.532;13.336;2023-04-28T07:36:06;101210.47;;;13.43;47.89
16595;BME280;8410;52.532;13.336;2023-04-28T07:38:34;101204.31;;;13.30;47.77
16595;BME280;8410;52.532;13.336;2023-04-28T07:41:02;101210.06;;;13.03;48.65
16595;BME280;8410;52.532;13.336;2023-04-28T07:43:34;101204.50;;;13.50;47.94
16595;BME280;8410;52.532;13.336;2023-04-28T07:46:01;101200.59;;;14.18;46.40
16595;BME280;8410;52.532;13.336;2023-04-28T07:48:29;101196.16;;;13.91;46.16
16595;BME280;8410;52.532;13.336;2023-04-28T07:50:57;101190.09;;;13.87;46.25
16595;BME280;8410;52.532;13.336;2023-04-28T07:53:25;101181.91;;;15.13;54.44
16595;BME280;8410;52.532;13.336;2023-04-28T07:55:53;101181.88;;;15.86;60.09
16595;BME280;8410;52.532;13.336;2023-04-28T07:58:20;101181.88;;;15.63;58.69
16595;BME280;8410;52.532;13.336;2023-04-28T08:00:49;101182.75;;;14.98;46.69
16595;BME280;8410;52.532;13.336;2023-04-28T08:03:17;101182.53;;;14.27;55.65
16595;BME280;8410;52.532;13.336;2023-04-28T08:05:44;101179.31;;;15.42;50.28
16595;BME280;8410;52.532;13.336;2023-04-28T08:08:12;101173.25;;;15.31;49.69
16595;BME280;8410;52.532;13.336;2023-04-28T08:10:40;101174.13;;;15.42;47.30
16595;BME280;8410;52.532;13.336;2023-04-28T08:13:09;101175.75;;;16.14;52.28
16595;BME280;8410;52.532;13.336;2023-04-28T08:15:36;101174.72;;;16.54;48.09
16595;BME280;8410;52.532;13.336;2023-04-28T08:18:06;101170.25;;;16.78;48.61
16595;BME280;8410;52.532;13.336;2023-04-28T08:20:33;101164.88;;;17.06;48.99
16595;BME280;8410;52.532;13.336;2023-04-28T08:23:01;101174.94;;;15.98;49.67
16595;BME280;8410;52.532;13.336;2023-04-28T08:25:28;101172.41;;;15.38;45.59
16595;BME280;8410;52.532;13.336;2023-04-28T08:27:56;101173.25;;;15.03;46.10
16595;BME280;8410;52.532;13.336;2023-04-28T08:30:24;101160.97;;;16.29;51.07
16595;BME280;8410;52.532;13.336;2023-04-28T08:32:51;101155.56;;;16.66;45.04
16595;BME280;8410;52.532;13.336;2023-04-28T08:35:20;101158.53;;;14.68;46.14
16595;BME280;8410;52.532;13.336;2023-04-28T08:37:48;101158.59;;;15.05;46.51
16595;BME280;8410;52.532;13.336;2023-04-28T08:40:15;101156.84;;;15.10;48.71
16595;BME280;8410;52.532;13.336;2023-04-28T08:42:43;101155.97;;;15.28;50.26
16595;BME280;8410;52.532;13.336;2023-04-28T08:45:12;101154.25;;;15.15;46.18
16595;BME280;8410;52.532;13.336;2023-04-28T08:47:40;101154.25;;;14.92;48.26
16595;BME280;8410;52.532;13.336;2023-04-28T08:50:12;101146.41;;;14.67;46.71
16595;BME280;8410;52.532;13.336;2023-04-28T08:52:41;101144.72;;;15.31;47.03
16595;BME280;8410;52.532;13.336;2023-04-28T08:55:10;101142.09;;;15.66;45.57
16595;BME280;8410;52.532;13.336;2023-04-28T08:57:42;101147.31;;;15.15;45.21
16595;BME280;8410;52.532;13.336;2023-04-28T09:00:11;101139.53;;;15.49;45.30
16595;BME280;8410;52.532;13.336;2023-04-28T09:02:38;101140.44;;;14.94;45.17
16595;BME280;8410;52.532;13.336;2023-04-28T09:05:08;101139.53;;;15.15;45.83
16595;BME280;8410;52.532;13.336;2023-04-28T09:07:37;101137.66;;;14.31;47.47
16595;BME280;8410;52.532;13.336;2023-04-28T09:10:16;101129.16;;;15.58;45.58
16595;BME280;8410;52.532;13.336;2023-04-28T09:12:45;101118.66;;;15.95;44.90
16595;BME280;8410;52.532;13.336;2023-04-28T09:15:25;101115.28;;;15.59;44.83
16595;BME280;8410;52.532;13.336;2023-04-28T09:17:53;101108.44;;;15.00;45.42
16595;BME280;8410;52.532;13.336;2023-04-28T09:20:21;101102.25;;;15.96;44.30
16595;BME280;8410;52.532;13.336;2023-04-28T09:22:51;101110.91;;;15.84;43.00
16595;BME280;8410;52.532;13.336;2023-04-28T09:25:21;101102.19;;;16.07;44.47
16595;BME280;8410;52.532;13.336;2023-04-28T09:27:49;101098.72;;;16.09;43.73
16595;BME280;8410;52.532;13.336;2023-04-28T09:30:16;101094.53;;;15.72;44.70
16595;BME280;8410;52.532;13.336;2023-04-28T09:33:03;101084.47;;;16.73;43.88
16595;BME280;8410;52.532;13.336;2023-04-28T09:35:41;101099.72;;;15.64;44.30
16595;BME280;8410;52.532;13.336;2023-04-28T09:38:08;101089.16;;;16.16;43.40
16595;BME280;8410;52.532;13.336;2023-04-28T09:40:53;101082.22;;;16.17;43.89
16595;BME280;8410;52.532;13.336;2023-04-28T09:43:28;101067.94;;;16.85;43.50
16595;BME280;8410;52.532;13.336;2023-04-28T09:45:58;101078.78;;;16.08;43.95
16595;BME280;8410;52.532;13.336;2023-04-28T09:48:28;101068.84;;;16.78;43.69
16595;BME280;8410;52.532;13.336;2023-04-28T09:50:56;101061.75;;;16.98;42.08
16595;BME280;8410;52.532;13.336;2023-04-28T09:53:25;101060.06;;;16.96;42.25
16595;BME280;8410;52.532;13.336;2023-04-28T09:55:55;101058.88;;;17.26;41.96
16595;BME280;8410;52.532;13.336;2023-04-28T09:58:24;101062.53;;;17.10;43.40
16595;BME280;8410;52.532;13.336;2023-04-28T10:00:54;101058.69;;;17.45;41.59
16595;BME280;8410;52.532;13.336;2023-04-28T10:03:23;101057.25;;;17.16;41.29
16595;BME280;8410;52.532;13.336;2023-04-28T10:05:55;101063.00;;;17.49;41.98
16595;BME280;8410;52.532;13.336;2023-04-28T10:08:24;101059.63;;;17.39;42.21
16595;BME280;8410;52.532;13.336;2023-04-28T10:10:54;101054.88;;;16.93;42.78
16595;BME280;8410;52.532;13.336;2023-04-28T10:13:22;101052.75;;;17.32;42.37
16595;BME280;8410;52.532;13.336;2023-04-28T10:15:50;101052.28;;;16.91;42.96
16595;BME280;8410;52.532;13.336;2023-04-28T10:18:21;101044.34;;;17.08;42.57
16595;BME280;8410;52.532;13.336;2023-04-28T10:20:52;101033.84;;;17.95;41.31
16595;BME280;8410;52.532;13.336;2023-04-28T10:23:36;101033.03;;;17.91;41.46
16595;BME280;8410;52.532;13.336;2023-04-28T10:26:13;101033.66;;;17.36;42.89
16595;BME280;8410;52.532;13.336;2023-04-28T10:28:45;101025.34;;;17.00;43.33
16595;BME280;8410;52.532;13.336;2023-04-28T10:31:14;101026.22;;;17.01;42.34
16595;BME280;8410;52.532;13.336;2023-04-28T10:33:43;101020.94;;;17.07;43.24
16595;BME280;8410;52.532;13.336;2023-04-28T10:36:46;101016.59;;;17.86;42.27
16595;BME280;8410;52.532;13.336;2023-04-28T10:39:14;101019.97;;;17.17;43.24
16595;BME280;8410;52.532;13.336;2023-04-28T10:41:44;101019.78;;;16.32;44.40
16595;BME280;8410;52.532;13.336;2023-04-28T10:44:42;101006.81;;;16.29;45.56
16595;BME280;8410;52.532;13.336;2023-04-28T10:47:10;101008.84;;;17.01;43.03
16595;BME280;8410;52.532;13.336;2023-04-28T10:50:08;101008.28;;;16.65;44.19
16595;BME280;8410;52.532;13.336;2023-04-28T10:52:49;101002.16;;;16.77;43.68
16595;BME280;8410;52.532;13.336;2023-04-28T10:55:38;101004.84;;;17.50;42.55
16595;BME280;8410;52.532;13.336;2023-04-28T10:58:31;100988.59;;;18.02;42.01
16595;BME280;8410;52.532;13.336;2023-04-28T11:01:23;100989.13;;;17.59;42.55
16595;BME280;8410;52.532;13.336;2023-04-28T11:03:52;100985.19;;;17.26;43.28
16595;BME280;8410;52.532;13.336;2023-04-28T11:06:27;100993.03;;;17.21;43.92
16595;BME280;8410;52.532;13.336;2023-04-28T11:08:56;100981.19;;;17.70;42.17
16595;BME280;8410;52.532;13.336;2023-04-28T11:11:26;100977.63;;;18.36;42.64
16595;BME280;8410;52.532;13.336;2023-04-28T11:14:30;100983.69;;;18.39;40.87
16595;BME280;8410;52.532;13.336;2023-04-28T11:17:00;100980.69;;;17.38;43.34
16595;BME280;8410;52.532;13.336;2023-04-28T11:19:30;100973.75;;;18.07;42.50
16595;BME280;8410;52.532;13.336;2023-04-28T11:22:00;100979.00;;;17.36;43.59
16595;BME280;8410;52.532;13.336;2023-04-28T11:24:28;100969.97;;;18.81;41.76
16595;BME280;8410;52.532;13.336;2023-04-28T11:26:57;100974.94;;;17.84;42.53
16595;BME280;8410;52.532;13.336;2023-04-28T11:29:33;100973.47;;;17.62;42.73
16595;BME280;8410;52.532;13.336;2023-04-28T11:32:01;100965.09;;;18.58;41.88
16595;BME280;8410;52.532;13.336;2023-04-28T11:34:30;100963.56;;;18.46;41.11
16595;BME280;8410;52.532;13.336;2023-04-28T11:36:58;100964.94;;;18.68;41.23
16595;BME280;8410;52.532;13.336;2023-04-28T11:39:27;100957.63;;;18.89;41.05
16595;BME280;8410;52.532;13.336;2023-04-28T11:41:55;100961.50;;;18.66;41.68
16595;BME280;8410;52.532;13.336;2023-04-28T11:44:24;100959.59;;;18.78;41.49
16595;BME280;8410;52.532;13.336;2023-04-28T11:46:55;100955.22;;;18.78;41.11
16595;BME280;8410;52.532;13.336;2023-04-28T11:49:27;100954.47;;;18.17;42.18
16595;BME280;8410;52.532;13.336;2023-04-28T11:51:56;100955.28;;;18.73;41.87
16595;BME280;8410;52.532;13.336;2023-04-28T11:54:26;100942.28;;;19.18;40.68
16595;BME280;8410;52.532;13.336;2023-04-28T11:56:55;100949.88;;;18.35;41.97
16595;BME280;8410;52.532;13.336;2023-04-28T11:59:24;100939.22;;;19.40;40.87
16595;BME280;8410;52.532;13.336;2023-04-28T12:01:55;100945.94;;;19.10;40.55
16595;BME280;8410;52.532;13.336;2023-04-28T12:04:29;100933.84;;;19.49;40.19
16595;BME280;8410;52.532;13.336;2023-04-28T12:06:59;100927.53;;;19.59;40.01
16595;BME280;8410;52.532;13.336;2023-04-28T12:09:27;100935.69;;;19.44;40.17
16595;BME280;8410;52.532;13.336;2023-04-28T12:11:56;100928.84;;;19.37;41.14
16595;BME280;8410;52.532;13.336;2023-04-28T12:14:24;100923.16;;;19.58;40.80
16595;BME280;8410;52.532;13.336;2023-04-28T12:16:53;100924.72;;;20.08;40.69
16595;BME280;8410;52.532;13.336;2023-04-28T12:19:22;100921.44;;;19.98;40.15
16595;BME280;8410;52.532;13.336;2023-04-28T12:22:00;100913.34;;;20.09;40.42
16595;BME280;8410;52.532;13.336;2023-04-28T12:24:28;100921.94;;;19.36;41.08
16595;BME280;8410;52.532;13.336;2023-04-28T12:27:14;100915.38;;;19.97;40.67
16595;BME280;8410;52.532;13.336;2023-04-28T12:29:43;100910.56;;;19.38;41.07
16595;BME280;8410;52.532;13.336;2023-04-28T12:32:13;100906.72;;;19.55;40.95
16595;BME280;8410;52.532;13.336;2023-04-28T12:34:41;100903.50;;;19.84;41.07
16595;BME280;8410;52.532;13.336;2023-04-28T12:37:09;100900.56;;;19.57;40.95
16595;BME280;8410;52.532;13.336;2023-04-28T12:39:39;100900.00;;;19.43;40.79
16595;BME280;8410;52.532;13.336;2023-04-28T12:42:07;100896.50;;;19.85;41.14
16595;BME280;8410;52.532;13.336;2023-04-28T12:44:36;100898.47;;;19.75;41.37
16595;BME280;8410;52.532;13.336;2023-04-28T12:47:05;100910.59;;;18.45;43.06
16595;BME280;8410;52.532;13.336;2023-04-28T12:49:34;100892.31;;;19.77;41.07
16595;BME280;8410;52.532;13.336;2023-04-28T12:52:02;100889.75;;;20.12;41.11
16595;BME280;8410;52.532;13.336;2023-04-28T12:54:30;100893.56;;;19.59;41.45
16595;BME280;8410;52.532;13.336;2023-04-28T12:56:58;100886.16;;;19.80;41.62
16595;BME280;8410;52.532;13.336;2023-04-28T12:59:26;100877.69;;;19.70;40.97
16595;BME280;8410;52.532;13.336;2023-04-28T13:01:54;100883.97;;;19.60;40.64
16595;BME280;8410;52.532;13.336;2023-04-28T13:04:21;100879.28;;;19.76;41.66